createdAt,value
2023-04-02T00:01:02.096Z,63.53
2023-04-02T00:03:28.330Z,63.60
2023-04-02T00:05:54.601Z,63.43
2023-04-02T00:08:20.707Z,63.44
2023-04-02T00:10:46.831Z,63.23
2023-04-02T00:13:13.091Z,63.41
2023-04-02T00:15:39.210Z,63.47
2023-04-02T00:18:05.375Z,63.33
2023-04-02T00:20:31.599Z,63.50
2023-04-02T00:22:57.743Z,63.70
2023-04-02T00:25:23.844Z,63.48
2023-04-02T00:27:49.998Z,63.43
2023-04-02T00:30:16.161Z,63.45
2023-04-02T00:32:42.358Z,63.31
2023-04-02T00:35:08.497Z,63.54
2023-04-02T00:37:34.604Z,63.55
2023-04-02T00:40:00.705Z,63.34
2023-04-02T00:42:26.835Z,63.66
2023-04-02T00:44:52.984Z,63.52
2023-04-02T00:47:19.158Z,63.74
2023-04-02T00:49:45.307Z,63.65
2023-04-02T00:52:11.458Z,63.79
2023-04-02T00:54:37.638Z,63.50
2023-04-02T00:57:04.319Z,63.63
2023-04-02T00:59:30.513Z,63.72
2023-04-02T01:01:56.720Z,63.81
2023-04-02T01:04:23.017Z,63.61
2023-04-02T01:06:49.209Z,63.55
2023-04-02T01:09:15.332Z,63.53
2023-04-02T01:11:41.452Z,63.64
2023-04-02T01:14:09.105Z,63.57
2023-04-02T01:16:35.246Z,63.57
2023-04-02T01:19:01.385Z,63.46
2023-04-02T01:21:27.567Z,63.48
2023-04-02T01:23:53.677Z,63.71
2023-04-02T01:26:19.819Z,63.55
2023-04-02T01:28:45.992Z,63.65
2023-04-02T01:31:12.202Z,63.42
2023-04-02T01:33:38.358Z,63.58
2023-04-02T01:36:04.539Z,63.73
2023-04-02T01:38:30.735Z,63.67
2023-04-02T01:40:58.059Z,63.44
2023-04-02T01:43:24.251Z,63.58
2023-04-02T01:45:50.392Z,63.63
2023-04-02T01:48:16.541Z,63.60
2023-04-02T01:50:42.681Z,63.58
2023-04-02T01:53:08.861Z,63.68
2023-04-02T01:55:35.364Z,63.74
2023-04-02T01:58:01.713Z,63.50
2023-04-02T02:00:27.841Z,63.62
2023-04-02T02:02:54.108Z,63.39
2023-04-02T02:05:20.301Z,63.49
2023-04-02T02:07:46.454Z,63.66
2023-04-02T02:10:13.061Z,63.44
2023-04-02T02:12:39.165Z,63.68
2023-04-02T02:15:05.350Z,63.45
2023-04-02T02:17:31.618Z,63.72
2023-04-02T02:19:57.722Z,63.37
2023-04-02T02:22:23.907Z,63.60
2023-04-02T02:24:50.121Z,63.52
2023-04-02T02:27:16.292Z,63.59
2023-04-02T02:29:42.437Z,63.59
2023-04-02T02:32:08.727Z,63.70
2023-04-02T02:34:34.933Z,63.55
2023-04-02T02:37:01.048Z,63.49
2023-04-02T02:39:27.182Z,63.74
2023-04-02T02:41:53.303Z,63.61
2023-04-02T02:44:19.470Z,63.54
2023-04-02T02:46:45.601Z,63.34
2023-04-02T02:49:11.712Z,63.68
2023-04-02T02:51:37.930Z,63.41
2023-04-02T02:54:04.124Z,63.58
2023-04-02T02:56:30.230Z,63.51
2023-04-02T02:58:56.317Z,63.46
2023-04-02T03:01:22.657Z,63.60
2023-04-02T03:03:49.092Z,63.40
2023-04-02T03:06:15.377Z,63.37
2023-04-02T03:08:41.598Z,63.52
2023-04-02T03:11:07.817Z,63.60
2023-04-02T03:13:33.906Z,63.58
2023-04-02T03:16:00.248Z,63.38
2023-04-02T03:18:26.402Z,63.71
2023-04-02T03:20:52.520Z,63.65
2023-04-02T03:23:19.969Z,63.64
2023-04-02T03:25:46.644Z,63.49
2023-04-02T03:28:12.821Z,63.46
2023-04-02T03:30:38.986Z,63.50
2023-04-02T03:33:05.225Z,63.55
2023-04-02T03:35:31.370Z,63.46
2023-04-02T03:37:57.494Z,63.53
2023-04-02T03:40:23.623Z,63.57
2023-04-02T03:42:49.713Z,63.45
2023-04-02T03:45:15.823Z,63.33
2023-04-02T03:47:41.973Z,63.37
2023-04-02T03:50:08.139Z,63.23
2023-04-02T03:52:34.243Z,63.29
2023-04-02T03:55:00.361Z,63.48
2023-04-02T03:57:26.625Z,63.45
2023-04-02T03:59:52.868Z,63.47
2023-04-02T04:02:19.000Z,63.41
2023-04-02T04:04:45.122Z,63.29
2023-04-02T04:07:11.705Z,63.25
2023-04-02T04:09:37.821Z,63.41
2023-04-02T04:12:03.919Z,63.27
2023-04-02T04:14:30.069Z,63.08
2023-04-02T04:16:56.231Z,63.41
2023-04-02T04:19:22.353Z,63.42
2023-04-02T04:21:48.472Z,63.23
2023-04-02T04:24:14.571Z,63.48
2023-04-02T04:26:40.690Z,63.50
2023-04-02T04:29:06.850Z,63.33
2023-04-02T04:31:32.999Z,63.31
2023-04-02T04:33:59.128Z,63.38
2023-04-02T04:36:25.253Z,63.39
2023-04-02T04:38:51.360Z,63.34
2023-04-02T04:41:17.503Z,63.45
2023-04-02T04:43:43.702Z,63.31
2023-04-02T04:46:09.843Z,63.46
2023-04-02T04:48:36.544Z,63.32
2023-04-02T04:51:02.737Z,63.23
2023-04-02T04:53:28.860Z,63.31
2023-04-02T04:55:54.955Z,63.40
2023-04-02T04:58:21.071Z,63.17
2023-04-02T05:00:47.819Z,63.55
2023-04-02T05:03:15.164Z,63.41
2023-04-02T05:05:41.278Z,63.13
2023-04-02T05:08:07.381Z,63.09
2023-04-02T05:10:33.485Z,63.37
2023-04-02T05:12:59.612Z,63.52
2023-04-02T05:15:25.729Z,63.30
2023-04-02T05:17:51.919Z,63.14
2023-04-02T05:20:18.142Z,63.38
2023-04-02T05:22:44.247Z,63.33
2023-04-02T05:25:10.352Z,63.46
2023-04-02T05:27:36.496Z,63.56
2023-04-02T05:30:02.624Z,63.40
2023-04-02T05:32:28.740Z,63.46
2023-04-02T05:34:54.885Z,63.47
2023-04-02T05:37:20.982Z,63.30
2023-04-02T05:39:47.132Z,63.37
2023-04-02T05:42:13.229Z,63.41
2023-04-02T05:44:39.342Z,63.37
2023-04-02T05:47:05.446Z,63.20
2023-04-02T05:49:31.563Z,63.46
2023-04-02T05:51:57.814Z,63.28
2023-04-02T05:54:24.005Z,63.41
2023-04-02T05:56:50.169Z,63.39
2023-04-02T05:59:16.316Z,63.18
2023-04-02T06:01:42.553Z,63.08
2023-04-02T06:04:08.897Z,63.47
2023-04-02T06:06:35.094Z,63.39
2023-04-02T06:09:01.190Z,63.40
2023-04-02T06:11:27.407Z,63.37
2023-04-02T06:13:53.556Z,63.42
2023-04-02T06:16:19.674Z,63.34
2023-04-02T06:18:45.806Z,63.28
2023-04-02T06:21:11.892Z,63.33
2023-04-02T06:23:37.989Z,63.42
2023-04-02T06:26:04.603Z,63.49
2023-04-02T06:28:33.111Z,63.12
2023-04-02T06:30:59.340Z,63.42
2023-04-02T06:33:25.499Z,63.47
2023-04-02T06:35:51.629Z,63.43
2023-04-02T06:38:17.731Z,63.31
2023-04-02T06:40:43.870Z,63.14
2023-04-02T06:43:09.977Z,63.35
2023-04-02T06:45:36.274Z,63.37
2023-04-02T06:48:02.623Z,63.39
2023-04-02T06:50:28.801Z,63.42
2023-04-02T06:52:54.960Z,63.45
2023-04-02T06:55:21.165Z,63.32
2023-04-02T06:57:47.352Z,63.33
2023-04-02T07:00:13.466Z,63.24
2023-04-02T07:02:39.719Z,63.23
2023-04-02T07:05:06.058Z,63.21
2023-04-02T07:07:32.479Z,63.40
2023-04-02T07:09:58.595Z,63.31
2023-04-02T07:12:24.686Z,63.32
2023-04-02T07:14:50.813Z,63.39
2023-04-02T07:17:17.126Z,63.24
2023-04-02T07:19:43.295Z,63.26
2023-04-02T07:22:09.429Z,63.24
2023-04-02T07:24:35.636Z,63.26
2023-04-02T07:27:01.757Z,63.25
2023-04-02T07:29:27.875Z,63.24
2023-04-02T07:31:54.169Z,63.14
2023-04-02T07:34:20.336Z,62.96
2023-04-02T07:36:46.427Z,63.31
2023-04-02T07:39:12.605Z,63.35
2023-04-02T07:41:38.804Z,63.26
2023-04-02T07:44:04.898Z,63.31
2023-04-02T07:46:31.092Z,63.36
2023-04-02T07:48:57.238Z,63.34
2023-04-02T07:51:23.353Z,63.30
2023-04-02T07:53:49.541Z,63.37
2023-04-02T07:56:15.649Z,63.34
2023-04-02T07:58:41.781Z,63.00
2023-04-02T08:01:07.895Z,63.26
2023-04-02T08:03:34.069Z,63.35
2023-04-02T08:06:00.251Z,63.28
2023-04-02T08:08:26.370Z,63.12
2023-04-02T08:10:52.466Z,63.16
2023-04-02T08:13:18.574Z,63.32
2023-04-02T08:15:44.702Z,63.29
2023-04-02T08:18:10.839Z,63.30
2023-04-02T08:20:36.997Z,63.17
2023-04-02T08:23:03.256Z,63.07
2023-04-02T08:25:29.396Z,63.08
2023-04-02T08:27:55.500Z,63.23
2023-04-02T08:30:21.828Z,62.99
2023-04-02T08:32:47.944Z,63.23
2023-04-02T08:35:14.061Z,63.23
2023-04-02T08:37:40.291Z,62.90
2023-04-02T08:40:06.419Z,63.06
2023-04-02T08:42:32.572Z,63.16
2023-04-02T08:44:58.686Z,63.20
2023-04-02T08:47:24.839Z,63.25
2023-04-02T08:49:50.998Z,63.20
2023-04-02T08:52:17.110Z,63.09
2023-04-02T08:54:43.310Z,63.17
2023-04-02T08:57:09.576Z,62.91
2023-04-02T08:59:35.736Z,62.94
2023-04-02T09:02:02.131Z,62.99
2023-04-02T09:04:28.496Z,63.02
2023-04-02T09:06:54.655Z,63.02
2023-04-02T09:09:20.763Z,62.99
2023-04-02T09:11:46.870Z,63.12
2023-04-02T09:14:13.002Z,62.85
2023-04-02T09:16:39.101Z,63.28
2023-04-02T09:19:05.218Z,62.97
2023-04-02T09:21:31.433Z,62.85
2023-04-02T09:23:57.523Z,63.16
2023-04-02T09:26:23.674Z,63.27
2023-04-02T09:28:49.862Z,63.03
2023-04-02T09:31:16.002Z,62.98
2023-04-02T09:33:42.174Z,63.05
2023-04-02T09:36:08.921Z,63.03
2023-04-02T09:38:35.033Z,63.14
2023-04-02T09:41:01.132Z,63.03
2023-04-02T09:43:27.234Z,63.10
2023-04-02T09:45:53.333Z,63.19
2023-04-02T09:48:19.438Z,63.19
2023-04-02T09:50:45.565Z,62.90
2023-04-02T09:53:11.694Z,63.11
2023-04-02T09:55:37.941Z,62.92
2023-04-02T09:58:04.091Z,63.04
2023-04-02T10:00:32.619Z,63.00
2023-04-02T10:03:08.121Z,63.12
2023-04-02T10:08:03.306Z,63.06
2023-04-02T10:10:29.531Z,63.12
2023-04-02T10:12:55.650Z,63.12
2023-04-02T10:15:21.751Z,63.06
2023-04-02T10:17:47.899Z,63.05
2023-04-02T10:20:14.060Z,63.15
2023-04-02T10:22:40.185Z,62.93
2023-04-02T10:25:07.520Z,62.86
2023-04-02T10:27:33.612Z,62.89
2023-04-02T10:29:59.744Z,63.02
2023-04-02T10:32:26.243Z,63.11
2023-04-02T10:34:52.420Z,62.92
2023-04-02T10:37:18.600Z,62.93
2023-04-02T10:39:44.831Z,63.21
2023-04-02T10:42:10.984Z,63.16
2023-04-02T10:44:37.103Z,63.09
2023-04-02T10:47:03.245Z,63.07
2023-04-02T10:49:29.525Z,63.12
2023-04-02T10:51:55.656Z,63.14
2023-04-02T10:54:21.884Z,62.85
2023-04-02T10:56:51.326Z,63.15
2023-04-02T10:59:17.623Z,63.17
2023-04-02T11:01:43.855Z,63.22
2023-04-02T11:04:10.064Z,62.94
2023-04-02T11:06:36.181Z,63.07
2023-04-02T11:09:02.289Z,63.02
2023-04-02T11:11:28.568Z,63.05
2023-04-02T11:13:54.664Z,63.17
2023-04-02T11:16:20.972Z,63.24
2023-04-02T11:18:47.100Z,63.01
2023-04-02T11:21:13.195Z,63.07
2023-04-02T11:23:39.303Z,63.17
2023-04-02T11:26:05.490Z,63.20
2023-04-02T11:28:31.610Z,63.29
2023-04-02T11:30:57.728Z,63.18
2023-04-02T11:33:35.907Z,63.26
2023-04-02T11:36:03.151Z,63.14
2023-04-02T11:38:29.292Z,63.18
2023-04-02T11:40:55.447Z,63.13
2023-04-02T11:43:21.874Z,63.20
2023-04-02T11:45:52.660Z,63.23
2023-04-02T11:48:19.385Z,63.12
2023-04-02T11:50:45.905Z,62.97
2023-04-02T11:53:12.317Z,63.16
2023-04-02T11:55:38.789Z,63.08
2023-04-02T11:58:05.049Z,63.15
2023-04-02T12:00:31.141Z,63.08
2023-04-02T12:02:57.386Z,63.11
2023-04-02T12:05:23.963Z,63.25
2023-04-02T12:07:50.151Z,62.98
2023-04-02T12:10:16.276Z,63.16
2023-04-02T12:12:42.477Z,62.91
2023-04-02T12:15:08.583Z,62.83
2023-04-02T12:17:34.796Z,63.11
2023-04-02T12:20:01.226Z,62.88
2023-04-02T12:22:28.016Z,63.21
2023-04-02T12:24:54.119Z,63.13
2023-04-02T12:27:20.236Z,63.07
2023-04-02T12:29:46.347Z,63.07
2023-04-02T12:32:12.496Z,62.91
2023-04-02T12:34:38.847Z,63.24
2023-04-02T12:37:04.991Z,63.00
2023-04-02T12:39:31.112Z,62.97
2023-04-02T12:41:57.331Z,63.16
2023-04-02T12:44:24.632Z,62.99
2023-04-02T12:46:50.743Z,63.08
2023-04-02T12:49:16.891Z,63.11
2023-04-02T12:51:43.067Z,63.02
2023-04-02T12:54:09.225Z,63.00
2023-04-02T12:56:35.349Z,62.76
2023-04-02T12:59:01.450Z,62.83
2023-04-02T13:01:27.713Z,63.07
2023-04-02T13:03:53.892Z,63.07
2023-04-02T13:06:20.015Z,62.77
2023-04-02T13:08:46.166Z,62.85
2023-04-02T13:11:12.336Z,63.02
2023-04-02T13:13:38.446Z,62.91
2023-04-02T13:16:04.619Z,62.97
2023-04-02T13:18:30.799Z,62.79
2023-04-02T13:20:56.894Z,62.95
2023-04-02T13:23:22.987Z,62.97
2023-04-02T13:25:49.122Z,62.98
2023-04-02T13:28:15.239Z,62.88
2023-04-02T13:30:41.355Z,62.93
2023-04-02T13:33:07.529Z,62.80
2023-04-02T13:35:33.678Z,62.76
2023-04-02T13:37:59.940Z,62.84
2023-04-02T13:40:26.138Z,62.87
2023-04-02T13:42:52.242Z,62.69
2023-04-02T13:45:18.354Z,62.69
2023-04-02T13:47:44.631Z,62.60
2023-04-02T13:50:10.723Z,62.67
2023-04-02T13:52:36.829Z,63.05
2023-04-02T13:55:02.952Z,62.64
2023-04-02T13:57:29.281Z,62.98
2023-04-02T13:59:55.433Z,63.08
2023-04-02T14:02:21.598Z,62.89
2023-04-02T14:04:49.314Z,62.85
2023-04-02T14:07:16.797Z,63.04
2023-04-02T14:09:42.922Z,62.90
2023-04-02T14:12:09.047Z,62.86
2023-04-02T14:14:35.164Z,62.89
2023-04-02T14:17:01.306Z,62.79
2023-04-02T14:19:27.393Z,62.64
2023-04-02T14:21:53.489Z,62.79
2023-04-02T14:24:19.624Z,62.94
2023-04-02T14:26:45.736Z,62.79
2023-04-02T14:29:11.898Z,62.67
2023-04-02T14:31:38.029Z,62.72
2023-04-02T14:34:04.213Z,63.14
2023-04-02T14:36:30.324Z,62.86
2023-04-02T14:38:56.475Z,62.75
2023-04-02T14:41:22.582Z,62.82
2023-04-02T14:43:48.664Z,62.87
2023-04-02T14:46:14.801Z,62.85
2023-04-02T14:48:40.939Z,62.69
2023-04-02T14:51:07.075Z,62.88
2023-04-02T14:53:33.296Z,62.72
2023-04-02T14:55:59.391Z,62.86
2023-04-02T14:58:25.478Z,62.92
2023-04-02T15:00:51.612Z,62.63
2023-04-02T15:03:17.863Z,63.01
2023-04-02T15:05:44.016Z,62.96
2023-04-02T15:08:10.153Z,63.02
2023-04-02T15:10:36.365Z,62.58
2023-04-02T15:13:02.667Z,62.99
2023-04-02T15:15:39.026Z,63.00
2023-04-02T15:18:06.315Z,62.67
2023-04-02T15:20:32.539Z,62.67
2023-04-02T15:22:58.643Z,63.05
2023-04-02T15:25:24.740Z,62.79
2023-04-02T15:27:50.866Z,62.92
2023-04-02T15:30:16.975Z,62.71
2023-04-02T15:32:43.156Z,62.65
2023-04-02T15:35:09.348Z,62.92
2023-04-02T15:37:35.476Z,62.87
2023-04-02T15:40:01.576Z,62.62
2023-04-02T15:42:28.327Z,62.83
2023-04-02T15:44:54.440Z,62.55
2023-04-02T15:47:20.595Z,62.69
2023-04-02T15:49:46.725Z,62.68
2023-04-02T15:52:12.913Z,62.72
2023-04-02T15:54:39.107Z,62.76
2023-04-02T15:57:05.945Z,62.64
2023-04-02T15:59:39.331Z,62.81
2023-04-02T16:02:05.477Z,62.58
2023-04-02T16:04:31.800Z,62.50
2023-04-02T16:06:57.949Z,62.83
2023-04-02T16:09:24.044Z,62.72
2023-04-02T16:11:50.172Z,62.64
2023-04-02T16:14:16.320Z,62.87
2023-04-02T16:16:42.496Z,62.71
2023-04-02T16:19:16.076Z,62.47
2023-04-02T16:21:43.192Z,62.73
2023-04-02T16:24:09.312Z,62.72
2023-04-02T16:26:35.452Z,62.54
2023-04-02T16:29:01.539Z,62.62
2023-04-02T16:31:27.666Z,62.65
2023-04-02T16:33:53.767Z,62.69
2023-04-02T16:36:20.026Z,62.87
2023-04-02T16:38:46.221Z,62.66
2023-04-02T16:41:12.345Z,62.66
2023-04-02T16:43:38.431Z,62.55
2023-04-02T16:46:04.614Z,62.82
2023-04-02T16:48:30.716Z,62.52
2023-04-02T16:50:56.803Z,62.64
2023-04-02T16:53:22.905Z,62.53
2023-04-02T16:55:49.045Z,62.54
2023-04-02T16:58:15.164Z,62.82
2023-04-02T17:00:41.303Z,62.51
2023-04-02T17:03:07.558Z,62.72
2023-04-02T17:05:35.466Z,62.65
2023-04-02T17:08:01.606Z,62.65
2023-04-02T17:10:30.763Z,62.64
2023-04-02T17:12:56.917Z,62.48
2023-04-02T17:17:52.168Z,62.60
2023-04-02T17:20:18.285Z,62.56
2023-04-02T17:22:44.405Z,62.72
2023-04-02T17:25:10.505Z,62.44
2023-04-02T17:27:36.613Z,62.82
2023-04-02T17:30:02.739Z,62.74
2023-04-02T17:32:28.849Z,62.69
2023-04-02T17:34:54.954Z,62.71
2023-04-02T17:37:21.156Z,62.77
2023-04-02T17:39:47.273Z,62.42
2023-04-02T17:42:13.378Z,62.40
2023-04-02T17:44:39.507Z,62.67
2023-04-02T17:47:05.606Z,62.55
2023-04-02T17:49:31.708Z,62.53
2023-04-02T17:51:58.519Z,62.77
2023-04-02T17:54:24.613Z,62.60
2023-04-02T17:56:50.759Z,62.49
2023-04-02T17:59:17.354Z,62.48
2023-04-02T18:01:43.441Z,62.37
2023-04-02T18:04:09.555Z,62.86
2023-04-02T18:06:35.751Z,62.54
2023-04-02T18:09:01.889Z,62.79
2023-04-02T18:11:28.001Z,62.74
2023-04-02T18:13:54.108Z,62.55
2023-04-02T18:16:20.293Z,62.51
2023-04-02T18:18:46.548Z,62.42
2023-04-02T18:21:12.736Z,62.44
2023-04-02T18:23:38.845Z,62.68
2023-04-02T18:26:05.004Z,62.72
2023-04-02T18:28:31.169Z,62.47
2023-04-02T18:30:57.350Z,62.52
2023-04-02T18:33:23.511Z,62.70
2023-04-02T18:35:49.682Z,62.43
2023-04-02T18:38:15.797Z,62.75
2023-04-02T18:40:41.905Z,62.89
2023-04-02T18:43:08.220Z,62.57
2023-04-02T18:45:34.329Z,62.73
2023-04-02T18:48:00.490Z,62.54
2023-04-02T18:50:26.710Z,62.49
2023-04-02T18:52:52.921Z,62.78
2023-04-02T18:55:19.069Z,62.78
2023-04-02T18:57:45.178Z,62.72
2023-04-02T19:00:11.363Z,62.75
2023-04-02T19:02:37.519Z,62.82
2023-04-02T19:05:03.772Z,62.87
2023-04-02T19:07:29.885Z,62.66
2023-04-02T19:09:56.005Z,62.61
2023-04-02T19:12:22.146Z,62.65
2023-04-02T19:14:50.142Z,62.81
2023-04-02T19:17:17.153Z,62.89
2023-04-02T19:19:43.358Z,62.65
2023-04-02T19:22:09.546Z,62.79
2023-04-02T19:24:35.677Z,62.62
2023-04-02T19:27:01.785Z,62.70
2023-04-02T19:29:27.914Z,62.66
2023-04-02T19:31:54.127Z,62.90
2023-04-02T19:34:21.717Z,62.81
2023-04-02T19:36:47.879Z,62.64
2023-04-02T19:39:14.018Z,62.74
2023-04-02T19:41:40.237Z,62.82
2023-04-02T19:44:06.440Z,62.85
2023-04-02T19:46:32.569Z,62.70
2023-04-02T19:48:58.769Z,62.70
2023-04-02T19:51:24.857Z,62.79
2023-04-02T19:53:50.998Z,62.80
2023-04-02T19:56:17.120Z,62.75
2023-04-02T19:58:43.301Z,62.71
2023-04-02T20:01:09.467Z,62.89
2023-04-02T20:03:35.711Z,62.71
2023-04-02T20:06:01.930Z,62.66
2023-04-02T20:08:28.043Z,62.90
2023-04-02T20:10:54.198Z,62.72
2023-04-02T20:13:20.367Z,62.77
2023-04-02T20:15:46.476Z,62.86
2023-04-02T20:18:12.584Z,63.07
2023-04-02T20:20:38.706Z,62.61
2023-04-02T20:23:04.824Z,62.76
2023-04-02T20:25:30.940Z,62.81
2023-04-02T20:27:57.036Z,62.87
2023-04-02T20:30:23.137Z,62.99
2023-04-02T20:32:49.415Z,62.80
2023-04-02T20:35:15.659Z,62.69
2023-04-02T20:37:41.776Z,62.80
2023-04-02T20:40:07.900Z,62.88
2023-04-02T20:42:34.050Z,62.74
2023-04-02T20:45:00.153Z,62.97
2023-04-02T20:47:26.404Z,62.89
2023-04-02T20:49:52.546Z,62.76
2023-04-02T20:52:18.688Z,63.08
2023-04-02T20:54:44.814Z,62.83
2023-04-02T20:57:11.000Z,62.99
2023-04-02T20:59:37.124Z,63.13
2023-04-02T21:02:03.299Z,63.09
2023-04-02T21:04:29.466Z,62.90
2023-04-02T21:06:55.611Z,62.88
2023-04-02T21:09:21.809Z,62.79
2023-04-02T21:11:50.133Z,63.15
2023-04-02T21:14:16.250Z,62.87
2023-04-02T21:16:42.394Z,62.85
2023-04-02T21:19:08.496Z,62.98
2023-04-02T21:21:34.620Z,63.04
2023-04-02T21:24:00.747Z,62.90
2023-04-02T21:26:26.918Z,62.99
2023-04-02T21:28:53.075Z,62.88
2023-04-02T21:31:19.262Z,62.92
2023-04-02T21:33:45.397Z,62.93
2023-04-02T21:36:11.570Z,62.93
2023-04-02T21:38:37.801Z,62.95
2023-04-02T21:41:03.978Z,62.81
2023-04-02T21:43:30.102Z,62.95
2023-04-02T21:45:56.311Z,63.04
2023-04-02T21:48:22.407Z,63.14
2023-04-02T21:50:48.554Z,63.03
2023-04-02T21:53:15.319Z,63.15
2023-04-02T21:55:41.444Z,63.16
2023-04-02T21:58:07.550Z,62.96
2023-04-02T22:00:33.788Z,63.09
2023-04-02T22:03:00.061Z,62.94
2023-04-02T22:05:28.179Z,63.08
2023-04-02T22:07:54.307Z,63.07
2023-04-02T22:10:20.447Z,63.10
2023-04-02T22:12:46.558Z,63.08
2023-04-02T22:15:12.830Z,62.98
2023-04-02T22:17:39.043Z,63.11
2023-04-02T22:20:05.190Z,62.99
2023-04-02T22:22:31.334Z,63.21
2023-04-02T22:24:57.500Z,63.31
2023-04-02T22:27:23.639Z,63.05
2023-04-02T22:29:49.911Z,63.33
2023-04-02T22:32:16.041Z,63.27
2023-04-02T22:34:42.197Z,63.40
2023-04-02T22:37:08.338Z,63.16
2023-04-02T22:39:34.517Z,62.96
2023-04-02T22:42:00.741Z,63.03
2023-04-02T22:44:26.942Z,63.05
2023-04-02T22:46:53.077Z,63.11
2023-04-02T22:49:19.660Z,62.97
2023-04-02T22:51:45.938Z,63.07
2023-04-02T22:54:12.078Z,63.21
2023-04-02T22:56:38.228Z,63.09
2023-04-02T22:59:04.394Z,63.46
2023-04-02T23:01:30.528Z,63.36
2023-04-02T23:03:56.719Z,63.38
2023-04-02T23:06:22.829Z,63.38
2023-04-02T23:08:48.947Z,63.16
2023-04-02T23:11:15.048Z,63.21
2023-04-02T23:13:41.174Z,63.12
2023-04-02T23:16:07.406Z,63.16
2023-04-02T23:18:33.576Z,63.29
2023-04-02T23:20:59.705Z,63.08
2023-04-02T23:23:25.891Z,63.13
2023-04-02T23:25:52.032Z,63.24
2023-04-02T23:28:18.220Z,63.06
2023-04-02T23:30:44.323Z,63.45
2023-04-02T23:33:10.421Z,63.42
2023-04-02T23:35:36.591Z,63.19
2023-04-02T23:38:02.762Z,63.19
2023-04-02T23:40:28.865Z,63.16
2023-04-02T23:42:55.081Z,63.24
2023-04-02T23:45:21.320Z,63.37
2023-04-02T23:47:47.464Z,63.33
2023-04-02T23:50:13.740Z,63.43
2023-04-02T23:52:39.909Z,63.13
2023-04-02T23:55:06.083Z,63.14
2023-04-02T23:57:32.371Z,63.17
2023-04-02T23:59:58.621Z,63.21
